createdAt,value
2023-01-19T00:00:46.415Z,0.57
2023-01-19T00:03:16.479Z,0.70
2023-01-19T00:05:44.123Z,0.60
2023-01-19T00:08:17.714Z,0.40
2023-01-19T00:10:51.240Z,0.60
2023-01-19T00:13:17.963Z,1.10
2023-01-19T00:15:44.623Z,1.00
2023-01-19T00:18:11.374Z,1.00
2023-01-19T00:20:39.015Z,0.80
2023-01-19T00:23:07.701Z,1.23
2023-01-19T00:25:34.735Z,0.70
2023-01-19T00:28:02.071Z,1.13
2023-01-19T00:30:29.689Z,0.90
2023-01-19T00:32:56.954Z,0.50
2023-01-19T00:35:23.612Z,0.57
2023-01-19T00:37:50.254Z,1.00
2023-01-19T00:40:17.323Z,1.60
2023-01-19T00:42:44.699Z,1.17
2023-01-19T00:45:17.214Z,0.80
2023-01-19T00:47:43.778Z,0.40
2023-01-19T00:50:12.557Z,1.40
2023-01-19T00:52:40.737Z,0.70
2023-01-19T00:55:08.694Z,0.77
2023-01-19T00:57:35.429Z,0.60
2023-01-19T01:00:02.418Z,0.70
2023-01-19T01:02:29.402Z,0.80
2023-01-19T01:04:56.942Z,0.80
2023-01-19T01:07:24.693Z,1.03
2023-01-19T01:09:51.471Z,0.80
2023-01-19T01:12:18.123Z,1.33
2023-01-19T01:14:44.890Z,0.60
2023-01-19T01:17:11.753Z,0.50
2023-01-19T01:19:38.810Z,0.50
2023-01-19T01:22:05.530Z,1.00
2023-01-19T01:24:32.860Z,1.27
2023-01-19T01:26:59.682Z,0.67
2023-01-19T01:29:26.744Z,0.57
2023-01-19T01:31:53.617Z,0.30
2023-01-19T01:34:20.348Z,1.27
2023-01-19T01:36:47.051Z,1.23
2023-01-19T01:39:13.689Z,1.00
2023-01-19T01:41:40.329Z,0.40
2023-01-19T01:44:49.900Z,0.83
2023-01-19T01:47:41.970Z,0.97
2023-01-19T01:50:20.472Z,0.50
2023-01-19T01:53:06.593Z,0.50
2023-01-19T01:55:45.695Z,1.23
2023-01-19T01:58:13.646Z,0.60
2023-01-19T02:00:59.729Z,1.40
2023-01-19T02:03:27.417Z,1.23
2023-01-19T02:06:00.196Z,0.73
2023-01-19T02:09:01.761Z,0.87
2023-01-19T02:11:48.842Z,0.73
2023-01-19T02:14:15.443Z,1.40
2023-01-19T02:16:42.868Z,0.83
2023-01-19T02:19:22.718Z,0.67
2023-01-19T02:22:11.906Z,1.47
2023-01-19T02:24:38.704Z,0.57
2023-01-19T02:27:07.190Z,0.60
2023-01-19T02:29:34.811Z,0.67
2023-01-19T02:32:03.436Z,0.53
2023-01-19T02:34:30.264Z,0.63
2023-01-19T02:37:00.173Z,0.70
2023-01-19T02:39:36.901Z,0.90
2023-01-19T02:42:08.415Z,0.50
2023-01-19T02:44:36.577Z,0.90
2023-01-19T02:47:04.065Z,1.50
2023-01-19T02:49:31.286Z,0.93
2023-01-19T02:51:59.220Z,0.50
2023-01-19T02:54:42.230Z,0.60
2023-01-19T02:57:23.684Z,0.77
2023-01-19T03:00:21.753Z,0.67
2023-01-19T03:03:10.641Z,1.10
2023-01-19T03:06:02.774Z,0.57
2023-01-19T03:08:38.790Z,0.73
2023-01-19T03:11:09.449Z,0.57
2023-01-19T03:13:56.582Z,0.57
2023-01-19T03:16:42.080Z,1.10
2023-01-19T03:19:15.658Z,0.77
2023-01-19T03:21:47.214Z,0.90
2023-01-19T03:24:16.296Z,1.30
2023-01-19T03:26:47.779Z,1.07
2023-01-19T03:29:15.881Z,0.77
2023-01-19T03:31:46.223Z,0.70
2023-01-19T03:34:15.312Z,0.87
2023-01-19T03:36:50.985Z,1.07
2023-01-19T03:39:25.806Z,0.63
2023-01-19T03:41:56.771Z,0.70
2023-01-19T03:44:26.227Z,0.80
2023-01-19T03:46:53.533Z,0.90
2023-01-19T03:49:20.278Z,0.70
2023-01-19T03:51:47.316Z,0.97
2023-01-19T03:54:14.266Z,1.53
2023-01-19T03:56:40.875Z,1.40
2023-01-19T03:59:07.684Z,0.90
2023-01-19T04:01:34.436Z,0.60
2023-01-19T04:04:01.220Z,1.20
2023-01-19T04:06:28.473Z,0.83
2023-01-19T04:08:55.323Z,0.90
2023-01-19T04:11:22.124Z,1.10
2023-01-19T04:13:48.883Z,1.40
2023-01-19T04:16:20.175Z,1.50
2023-01-19T04:18:47.390Z,0.73
2023-01-19T04:21:14.391Z,1.37
2023-01-19T04:23:41.094Z,0.57
2023-01-19T04:26:08.712Z,1.17
2023-01-19T04:28:37.291Z,0.47
2023-01-19T04:31:05.555Z,1.00
2023-01-19T04:33:32.665Z,0.40
2023-01-19T04:35:59.492Z,0.60
2023-01-19T04:38:26.313Z,1.00
2023-01-19T04:40:54.170Z,0.57
2023-01-19T04:43:21.983Z,1.17
2023-01-19T04:45:49.358Z,0.63
2023-01-19T04:48:18.962Z,0.80
2023-01-19T04:50:46.124Z,1.00
2023-01-19T04:53:13.879Z,2.50
2023-01-19T04:55:40.964Z,1.00
2023-01-19T04:58:08.263Z,0.37
2023-01-19T05:00:35.107Z,0.70
2023-01-19T05:03:02.811Z,0.70
2023-01-19T05:05:29.869Z,0.77
2023-01-19T05:07:56.621Z,0.50
2023-01-19T05:10:23.999Z,1.30
2023-01-19T05:12:51.448Z,1.10
2023-01-19T05:15:18.319Z,0.53
2023-01-19T05:17:45.221Z,1.43
2023-01-19T05:20:15.922Z,0.57
2023-01-19T05:22:42.878Z,0.73
2023-01-19T05:25:09.841Z,0.73
2023-01-19T05:27:37.413Z,0.80
2023-01-19T05:30:05.887Z,0.53
2023-01-19T05:32:32.688Z,0.60
2023-01-19T05:34:59.356Z,0.73
2023-01-19T05:37:26.180Z,0.83
2023-01-19T05:39:53.232Z,1.03
2023-01-19T05:42:20.055Z,0.80
2023-01-19T05:44:46.743Z,1.33
2023-01-19T05:47:13.455Z,0.60
2023-01-19T05:49:40.131Z,1.10
2023-01-19T05:52:06.825Z,0.60
2023-01-19T05:54:33.505Z,1.37
2023-01-19T05:57:00.144Z,0.90
2023-01-19T05:59:26.844Z,1.03
2023-01-19T06:01:54.264Z,0.97
2023-01-19T06:04:21.522Z,1.30
2023-01-19T06:06:51.761Z,1.17
2023-01-19T06:09:18.868Z,1.00
2023-01-19T06:11:46.835Z,1.20
2023-01-19T06:14:13.729Z,0.87
2023-01-19T06:16:40.634Z,0.90
2023-01-19T06:19:07.683Z,0.60
2023-01-19T06:21:34.673Z,0.77
2023-01-19T06:24:01.350Z,1.23
2023-01-19T06:26:28.144Z,0.97
2023-01-19T06:28:55.648Z,1.20
2023-01-19T06:31:22.746Z,0.80
2023-01-19T06:33:50.203Z,0.80
2023-01-19T06:36:16.804Z,0.87
2023-01-19T06:38:43.468Z,1.10
2023-01-19T06:41:10.093Z,1.10
2023-01-19T06:43:36.817Z,1.37
2023-01-19T06:46:04.395Z,1.60
2023-01-19T06:48:31.076Z,1.20
2023-01-19T06:50:59.703Z,1.03
2023-01-19T06:53:28.203Z,1.63
2023-01-19T06:56:02.086Z,1.50
2023-01-19T06:58:30.314Z,1.87
2023-01-19T07:01:05.139Z,1.50
2023-01-19T07:03:32.226Z,0.90
2023-01-19T07:06:02.451Z,0.80
2023-01-19T07:08:30.103Z,1.07
2023-01-19T07:11:25.125Z,1.50
2023-01-19T07:13:51.926Z,1.17
2023-01-19T07:16:19.134Z,2.00
2023-01-19T07:18:49.090Z,1.00
2023-01-19T07:21:16.187Z,1.43
2023-01-19T07:23:43.596Z,1.70
2023-01-19T07:26:10.946Z,1.77
2023-01-19T07:28:37.773Z,0.67
2023-01-19T07:31:05.590Z,0.77
2023-01-19T07:33:32.449Z,1.00
2023-01-19T07:35:59.327Z,0.63
2023-01-19T07:38:26.298Z,1.10
2023-01-19T07:41:00.407Z,1.53
2023-01-19T07:43:26.946Z,0.57
2023-01-19T07:45:57.203Z,0.63
2023-01-19T07:48:24.327Z,1.20
2023-01-19T07:50:51.301Z,0.93
2023-01-19T07:53:18.123Z,1.37
2023-01-19T07:55:45.151Z,0.47
2023-01-19T07:58:11.817Z,1.03
2023-01-19T08:00:39.983Z,1.27
2023-01-19T08:03:06.782Z,0.83
2023-01-19T08:05:33.992Z,0.63
2023-01-19T08:08:00.857Z,1.13
2023-01-19T08:10:28.946Z,1.13
2023-01-19T08:12:57.164Z,1.87
2023-01-19T08:15:25.054Z,0.80
2023-01-19T08:18:01.925Z,1.13
2023-01-19T08:20:30.274Z,1.23
2023-01-19T08:23:00.686Z,0.90
2023-01-19T08:25:32.804Z,0.97
2023-01-19T08:28:00.235Z,1.40
2023-01-19T08:30:29.062Z,1.90
2023-01-19T08:33:06.917Z,1.10
2023-01-19T08:35:38.717Z,1.10
2023-01-19T08:38:07.096Z,1.40
2023-01-19T08:40:36.569Z,1.27
2023-01-19T08:43:08.053Z,1.27
2023-01-19T08:45:36.518Z,1.17
2023-01-19T08:48:04.318Z,1.30
2023-01-19T08:50:33.145Z,1.17
2023-01-19T08:53:02.529Z,1.33
2023-01-19T08:55:30.157Z,1.53
2023-01-19T08:58:00.278Z,1.40
2023-01-19T09:00:27.803Z,1.97
2023-01-19T09:02:54.848Z,1.90
2023-01-19T09:05:21.844Z,1.70
2023-01-19T09:07:49.037Z,2.03
2023-01-19T09:10:19.341Z,1.70
2023-01-19T09:12:46.711Z,1.37
2023-01-19T09:15:16.501Z,1.73
2023-01-19T09:17:43.366Z,1.40
2023-01-19T09:20:10.870Z,2.00
2023-01-19T09:22:39.774Z,1.87
2023-01-19T09:25:08.145Z,2.20
2023-01-19T09:27:36.202Z,1.60
2023-01-19T09:30:04.510Z,1.20
2023-01-19T09:32:31.333Z,2.07
2023-01-19T09:34:58.165Z,1.63
2023-01-19T09:37:24.971Z,1.57
2023-01-19T09:39:51.764Z,1.93
2023-01-19T09:42:28.028Z,1.30
2023-01-19T09:44:54.825Z,1.13
2023-01-19T09:47:28.399Z,1.10
2023-01-19T09:50:01.585Z,0.90
2023-01-19T09:52:31.825Z,2.00
2023-01-19T09:54:59.403Z,1.53
2023-01-19T09:57:30.579Z,1.70
2023-01-19T10:00:00.016Z,1.93
2023-01-19T10:02:26.583Z,1.60
2023-01-19T10:05:00.412Z,1.57
2023-01-19T10:07:34.324Z,1.17
2023-01-19T10:10:12.486Z,2.13
2023-01-19T10:13:09.878Z,1.30
2023-01-19T10:16:01.770Z,1.37
2023-01-19T10:18:37.187Z,1.53
2023-01-19T10:21:05.561Z,1.83
2023-01-19T10:23:39.588Z,1.40
2023-01-19T10:26:10.305Z,1.40
2023-01-19T10:28:38.578Z,1.47
2023-01-19T10:31:06.647Z,1.30
2023-01-19T10:33:35.415Z,1.50
2023-01-19T10:36:07.160Z,1.67
2023-01-19T10:38:35.489Z,1.70
2023-01-19T10:41:07.724Z,1.23
2023-01-19T10:43:34.725Z,1.87
2023-01-19T10:46:31.477Z,1.00
2023-01-19T10:48:58.235Z,1.63
2023-01-19T10:51:25.076Z,1.80
2023-01-19T10:54:03.489Z,1.10
2023-01-19T10:56:36.576Z,2.03
2023-01-19T10:59:05.632Z,0.90
2023-01-19T11:01:37.083Z,1.53
2023-01-19T11:04:27.548Z,1.70
2023-01-19T11:07:14.028Z,1.30
2023-01-19T11:09:40.688Z,1.63
2023-01-19T11:12:17.378Z,1.60
2023-01-19T11:14:44.192Z,1.30
2023-01-19T11:17:19.873Z,1.17
2023-01-19T11:19:56.005Z,1.50
2023-01-19T11:22:27.940Z,1.70
2023-01-19T11:24:59.179Z,1.37
2023-01-19T11:27:26.759Z,1.50
2023-01-19T11:30:18.812Z,1.40
2023-01-19T11:32:46.780Z,1.30
2023-01-19T11:35:32.066Z,1.63
2023-01-19T11:38:13.994Z,0.90
2023-01-19T11:40:42.370Z,1.43
2023-01-19T11:43:13.803Z,1.37
2023-01-19T11:45:41.242Z,0.80
2023-01-19T11:48:20.089Z,1.10
2023-01-19T11:50:49.403Z,0.63
2023-01-19T11:53:34.061Z,1.23
2023-01-19T11:56:08.692Z,1.23
2023-01-19T11:58:42.041Z,1.37
2023-01-19T12:01:25.004Z,1.10
2023-01-19T12:03:59.693Z,1.37
2023-01-19T12:06:32.232Z,1.20
2023-01-19T12:09:02.245Z,1.30
2023-01-19T12:11:35.045Z,1.13
2023-01-19T12:14:02.648Z,0.97
2023-01-19T12:16:33.384Z,1.37
2023-01-19T12:19:05.574Z,1.93
2023-01-19T12:21:32.307Z,1.30
2023-01-19T12:24:16.868Z,1.27
2023-01-19T12:26:52.029Z,1.30
2023-01-19T12:29:22.124Z,1.13
2023-01-19T12:32:14.160Z,1.20
2023-01-19T12:34:42.405Z,1.93
2023-01-19T12:37:27.327Z,0.50
2023-01-19T12:39:56.815Z,0.90
2023-01-19T12:42:25.005Z,1.03
2023-01-19T12:45:13.881Z,1.30
2023-01-19T12:47:53.202Z,1.20
2023-01-19T12:50:23.583Z,1.33
2023-01-19T12:53:00.141Z,1.70
2023-01-19T12:55:39.141Z,0.87
2023-01-19T12:58:14.273Z,1.57
2023-01-19T13:00:46.604Z,1.03
2023-01-19T13:03:16.183Z,0.80
2023-01-19T13:05:42.819Z,1.47
2023-01-19T13:08:09.598Z,0.93
2023-01-19T13:11:07.207Z,1.57
2023-01-19T13:13:42.427Z,1.87
2023-01-19T13:16:18.223Z,1.43
2023-01-19T13:19:07.039Z,1.30
2023-01-19T13:21:39.852Z,1.40
2023-01-19T13:24:07.992Z,1.50
2023-01-19T13:26:40.231Z,2.03
2023-01-19T13:29:11.068Z,1.13
2023-01-19T13:31:40.988Z,0.80
2023-01-19T13:34:19.439Z,1.57
2023-01-19T13:36:50.327Z,1.53
2023-01-19T13:39:28.668Z,1.47
2023-01-19T13:41:59.603Z,1.53
2023-01-19T13:44:39.453Z,1.63
2023-01-19T13:47:12.041Z,1.63
2023-01-19T13:49:45.472Z,1.50
2023-01-19T13:52:20.905Z,1.83
2023-01-19T13:55:01.724Z,1.63
2023-01-19T13:57:49.812Z,1.50
2023-01-19T14:00:31.323Z,1.73
2023-01-19T14:03:13.778Z,1.40
2023-01-19T14:05:43.323Z,1.57
2023-01-19T14:08:13.057Z,1.87
2023-01-19T14:10:48.481Z,1.83
2023-01-19T14:13:19.590Z,1.50
2023-01-19T14:15:49.022Z,1.20
2023-01-19T14:18:18.326Z,1.60
2023-01-19T14:20:56.744Z,1.27
2023-01-19T14:23:38.720Z,2.10
2023-01-19T14:26:06.502Z,1.63
2023-01-19T14:28:36.154Z,1.37
2023-01-19T14:31:18.751Z,1.80
2023-01-19T14:33:47.389Z,1.67
2023-01-19T14:36:16.780Z,1.40
2023-01-19T14:38:46.025Z,1.77
2023-01-19T14:41:22.934Z,1.77
2023-01-19T14:43:49.644Z,1.60
2023-01-19T14:46:20.355Z,1.93
2023-01-19T14:48:53.396Z,2.23
2023-01-19T14:51:23.557Z,1.13
2023-01-19T14:53:56.001Z,1.90
2023-01-19T14:56:30.743Z,1.63
2023-01-19T14:58:59.424Z,1.90
2023-01-19T15:01:31.940Z,1.47
2023-01-19T15:03:58.846Z,1.53
2023-01-19T15:06:26.780Z,1.90
2023-01-19T15:08:54.483Z,1.97
2023-01-19T15:11:30.054Z,2.63
2023-01-19T15:13:56.793Z,2.20
2023-01-19T15:16:24.471Z,2.00
2023-01-19T15:18:51.423Z,2.10
2023-01-19T15:21:20.348Z,1.80
2023-01-19T15:23:47.973Z,1.07
2023-01-19T15:26:20.918Z,1.70
2023-01-19T15:28:51.352Z,1.13
2023-01-19T15:31:21.087Z,1.53
2023-01-19T15:33:48.267Z,1.70
2023-01-19T15:36:20.697Z,1.63
2023-01-19T15:38:48.206Z,1.40
2023-01-19T15:41:30.208Z,1.77
2023-01-19T15:43:57.196Z,2.30
2023-01-19T15:46:26.267Z,2.13
2023-01-19T15:48:53.856Z,1.80
2023-01-19T15:51:22.998Z,1.80
2023-01-19T15:53:50.394Z,2.13
2023-01-19T15:56:19.873Z,1.90
2023-01-19T15:58:47.210Z,2.50
2023-01-19T16:01:16.458Z,1.90
2023-01-19T16:03:43.792Z,1.77
2023-01-19T16:06:10.765Z,1.67
2023-01-19T16:08:37.873Z,1.90
2023-01-19T16:11:12.946Z,2.47
2023-01-19T16:13:40.176Z,1.93
2023-01-19T16:16:16.313Z,2.33
2023-01-19T16:18:43.171Z,2.63
2023-01-19T16:21:09.897Z,2.53
2023-01-19T16:23:36.635Z,2.57
2023-01-19T16:26:10.386Z,2.27
2023-01-19T16:28:38.175Z,1.87
2023-01-19T16:31:04.950Z,2.17
2023-01-19T16:33:31.764Z,1.80
2023-01-19T16:35:58.472Z,2.53
2023-01-19T16:38:25.247Z,2.20
2023-01-19T16:40:51.902Z,1.30
2023-01-19T16:43:18.820Z,1.90
2023-01-19T16:46:01.081Z,1.87
2023-01-19T16:48:28.492Z,1.97
2023-01-19T16:51:03.686Z,1.63
2023-01-19T16:53:31.751Z,1.47
2023-01-19T16:55:58.534Z,1.87
2023-01-19T16:58:25.239Z,1.90
2023-01-19T17:00:52.205Z,1.80
2023-01-19T17:03:18.936Z,2.03
2023-01-19T17:05:50.708Z,1.50
2023-01-19T17:08:20.766Z,1.70
2023-01-19T17:10:48.132Z,1.60
2023-01-19T17:13:14.796Z,1.77
2023-01-19T17:15:41.691Z,1.57
2023-01-19T17:18:10.191Z,2.90
2023-01-19T17:20:37.171Z,1.33
2023-01-19T17:23:03.997Z,1.47
2023-01-19T17:25:30.763Z,1.97
2023-01-19T17:28:01.307Z,2.03
2023-01-19T17:30:28.132Z,1.60
2023-01-19T17:32:54.938Z,1.63
2023-01-19T17:35:21.742Z,1.40
2023-01-19T17:37:48.758Z,1.33
2023-01-19T17:40:15.911Z,1.80
2023-01-19T17:42:42.751Z,2.90
2023-01-19T17:45:11.265Z,1.60
2023-01-19T17:47:38.761Z,1.60
2023-01-19T17:50:20.567Z,1.73
2023-01-19T17:52:47.147Z,2.00
2023-01-19T17:55:13.998Z,2.40
2023-01-19T17:57:40.683Z,2.00
2023-01-19T18:00:08.471Z,1.10
2023-01-19T18:02:35.087Z,1.67
2023-01-19T18:05:03.044Z,1.50
2023-01-19T18:07:30.208Z,1.40
2023-01-19T18:09:58.560Z,1.63
2023-01-19T18:12:26.272Z,1.13
2023-01-19T18:14:52.922Z,2.00
2023-01-19T18:17:19.843Z,1.13
2023-01-19T18:19:46.557Z,1.90
2023-01-19T18:22:13.232Z,1.47
2023-01-19T18:24:40.024Z,1.20
2023-01-19T18:27:06.758Z,2.00
2023-01-19T18:29:33.432Z,1.70
2023-01-19T18:32:00.095Z,1.73
2023-01-19T18:34:26.817Z,1.10
2023-01-19T18:36:53.459Z,1.37
2023-01-19T18:39:20.152Z,1.60
2023-01-19T18:41:46.821Z,1.13
2023-01-19T18:44:13.458Z,1.80
2023-01-19T18:46:40.188Z,2.00
2023-01-19T18:49:07.090Z,1.67
2023-01-19T18:51:33.930Z,2.13
2023-01-19T18:54:00.638Z,1.67
2023-01-19T18:56:27.357Z,1.60
2023-01-19T18:58:54.178Z,1.57
2023-01-19T19:01:26.699Z,1.63
2023-01-19T19:03:55.176Z,1.60
2023-01-19T19:06:23.117Z,2.07
2023-01-19T19:08:51.526Z,1.33
2023-01-19T19:11:19.876Z,1.50
2023-01-19T19:13:46.678Z,1.83
2023-01-19T19:16:13.851Z,1.10
2023-01-19T19:18:40.522Z,1.40
2023-01-19T19:21:09.414Z,2.07
2023-01-19T19:23:37.128Z,2.37
2023-01-19T19:26:09.834Z,1.50
2023-01-19T19:28:40.686Z,1.90
2023-01-19T19:31:11.037Z,1.93
2023-01-19T19:33:38.971Z,2.10
2023-01-19T19:36:06.938Z,1.57
2023-01-19T19:38:34.883Z,2.00
2023-01-19T19:41:08.520Z,2.13
2023-01-19T19:43:36.507Z,2.23
2023-01-19T19:46:08.593Z,2.30
2023-01-19T19:48:38.186Z,2.07
2023-01-19T19:51:18.616Z,2.13
2023-01-19T19:53:46.489Z,1.97
2023-01-19T19:56:13.720Z,1.23
2023-01-19T19:58:42.224Z,2.37
2023-01-19T20:01:21.224Z,2.33
2023-01-19T20:03:48.624Z,2.40
2023-01-19T20:06:20.886Z,2.20
2023-01-19T20:08:52.450Z,2.10
2023-01-19T20:11:27.562Z,1.67
2023-01-19T20:13:54.587Z,1.53
2023-01-19T20:16:23.164Z,1.53
2023-01-19T20:18:54.146Z,1.80
2023-01-19T20:21:22.433Z,2.03
2023-01-19T20:23:51.031Z,1.40
2023-01-19T20:26:20.854Z,1.77
2023-01-19T20:28:48.118Z,1.60
2023-01-19T20:31:21.246Z,2.30
2023-01-19T20:33:50.472Z,1.40
2023-01-19T20:36:18.333Z,2.23
2023-01-19T20:38:45.550Z,2.00
2023-01-19T20:41:13.235Z,1.80
2023-01-19T20:43:40.064Z,2.83
2023-01-19T20:46:06.817Z,2.90
2023-01-19T20:48:33.572Z,1.90
2023-01-19T20:51:06.103Z,1.63
2023-01-19T20:53:33.661Z,1.33
2023-01-19T20:56:07.278Z,1.57
2023-01-19T20:58:34.506Z,1.80
2023-01-19T21:01:09.756Z,1.67
2023-01-19T21:03:36.492Z,2.53
2023-01-19T21:06:03.085Z,2.07
2023-01-19T21:08:29.710Z,1.83
2023-01-19T21:10:57.204Z,2.23
2023-01-19T21:13:24.388Z,1.83
2023-01-19T21:15:50.969Z,2.13
2023-01-19T21:18:17.553Z,2.17
2023-01-19T21:20:45.010Z,2.03
2023-01-19T21:23:11.680Z,2.50
2023-01-19T21:25:38.509Z,2.63
2023-01-19T21:28:05.382Z,1.70
2023-01-19T21:30:32.003Z,1.77
2023-01-19T21:32:58.630Z,2.20
2023-01-19T21:35:25.293Z,2.33
2023-01-19T21:37:52.000Z,2.17
2023-01-19T21:40:18.986Z,2.10
2023-01-19T21:42:45.662Z,2.00
2023-01-19T21:45:12.862Z,1.63
2023-01-19T21:47:39.609Z,2.17
2023-01-19T21:50:06.342Z,2.93
2023-01-19T21:52:33.001Z,2.60
2023-01-19T21:54:59.694Z,1.83
2023-01-19T21:57:26.385Z,1.70
2023-01-19T21:59:53.086Z,1.63
2023-01-19T22:02:37.168Z,1.30
2023-01-19T22:05:06.714Z,1.83
2023-01-19T22:07:33.404Z,1.53
2023-01-19T22:10:00.077Z,2.13
2023-01-19T22:12:26.943Z,2.53
2023-01-19T22:14:53.509Z,2.20
2023-01-19T22:17:20.440Z,3.27
2023-01-19T22:19:48.182Z,3.20
2023-01-19T22:22:15.207Z,2.83
2023-01-19T22:24:46.611Z,2.87
2023-01-19T22:27:13.451Z,3.60
2023-01-19T22:29:40.158Z,2.80
2023-01-19T22:32:07.080Z,4.03
2023-01-19T22:34:33.832Z,2.07
2023-01-19T22:37:01.261Z,1.93
2023-01-19T22:39:28.350Z,2.27
2023-01-19T22:41:54.891Z,2.17
2023-01-19T22:44:22.168Z,1.37
2023-01-19T22:46:50.875Z,1.77
2023-01-19T22:49:18.694Z,1.63
2023-01-19T22:51:45.854Z,2.17
2023-01-19T22:54:13.152Z,1.87
2023-01-19T22:56:40.743Z,2.03
2023-01-19T22:59:07.912Z,1.43
2023-01-19T23:01:40.528Z,2.27
2023-01-19T23:04:10.834Z,1.80
2023-01-19T23:06:37.664Z,2.67
2023-01-19T23:09:07.512Z,1.97
2023-01-19T23:11:37.514Z,2.13
2023-01-19T23:14:07.124Z,1.80
2023-01-19T23:16:35.155Z,1.43
2023-01-19T23:19:01.995Z,1.90
2023-01-19T23:21:30.199Z,2.53
2023-01-19T23:23:59.491Z,2.37
2023-01-19T23:26:26.887Z,1.63
2023-01-19T23:28:55.906Z,2.40
2023-01-19T23:31:24.337Z,2.23
2023-01-19T23:33:53.285Z,2.30
2023-01-19T23:36:21.255Z,2.50
2023-01-19T23:38:50.143Z,2.27
2023-01-19T23:41:17.613Z,2.33
2023-01-19T23:43:44.482Z,2.03
2023-01-19T23:46:12.146Z,2.27
2023-01-19T23:48:38.862Z,4.20
2023-01-19T23:51:10.810Z,2.57
2023-01-19T23:53:37.982Z,2.63
2023-01-19T23:56:17.832Z,2.30
2023-01-19T23:58:48.976Z,2.77
